sensor_id;sensor_type;location;lat;lon;timestamp;P1;durP1;ratioP1;P2;durP2;ratioP2
16689;SDS011;8458;52.220;9.884;2023-01-13T00:00:49;0.00;;;0.00;;
16689;SDS011;8458;52.220;9.884;2023-01-13T00:03:15;0.10;;;0.10;;
16689;SDS011;8458;52.220;9.884;2023-01-13T00:05:42;0.30;;;0.03;;
16689;SDS011;8458;52.220;9.884;2023-01-13T00:08:08;0.10;;;0.10;;
16689;SDS011;8458;52.220;9.884;2023-01-13T00:10:34;0.00;;;0.00;;
16689;SDS011;8458;52.220;9.884;2023-01-13T00:13:02;0.00;;;0.00;;
16689;SDS011;8458;52.220;9.884;2023-01-13T00:15:31;0.10;;;0.10;;
16689;SDS011;8458;52.220;9.884;2023-01-13T00:17:58;0.20;;;0.10;;
16689;SDS011;8458;52.220;9.884;2023-01-13T00:20:25;0.33;;;0.10;;
16689;SDS011;8458;52.220;9.884;2023-01-13T00:22:51;0.00;;;0.00;;
16689;SDS011;8458;52.220;9.884;2023-01-13T00:25:17;0.00;;;0.00;;
16689;SDS011;8458;52.220;9.884;2023-01-13T00:27:44;0.10;;;0.10;;
16689;SDS011;8458;52.220;9.884;2023-01-13T00:30:11;0.40;;;0.10;;
16689;SDS011;8458;52.220;9.884;2023-01-13T00:32:39;0.20;;;0.20;;
16689;SDS011;8458;52.220;9.884;2023-01-13T00:35:05;0.10;;;0.10;;
16689;SDS011;8458;52.220;9.884;2023-01-13T00:37:34;0.30;;;0.10;;
16689;SDS011;8458;52.220;9.884;2023-01-13T00:40:02;0.10;;;0.10;;
16689;SDS011;8458;52.220;9.884;2023-01-13T00:42:28;0.33;;;0.20;;
16689;SDS011;8458;52.220;9.884;2023-01-13T00:45:13;0.10;;;0.10;;
16689;SDS011;8458;52.220;9.884;2023-01-13T00:47:41;0.10;;;0.10;;
16689;SDS011;8458;52.220;9.884;2023-01-13T00:50:08;0.17;;;0.00;;
16689;SDS011;8458;52.220;9.884;2023-01-13T00:52:35;0.20;;;0.10;;
16689;SDS011;8458;52.220;9.884;2023-01-13T00:55:02;0.20;;;0.10;;
16689;SDS011;8458;52.220;9.884;2023-01-13T00:57:28;0.10;;;0.10;;
16689;SDS011;8458;52.220;9.884;2023-01-13T00:59:55;0.10;;;0.10;;
16689;SDS011;8458;52.220;9.884;2023-01-13T01:02:21;0.10;;;0.10;;
16689;SDS011;8458;52.220;9.884;2023-01-13T01:04:49;0.13;;;0.10;;
16689;SDS011;8458;52.220;9.884;2023-01-13T01:07:16;0.40;;;0.20;;
16689;SDS011;8458;52.220;9.884;2023-01-13T01:09:42;0.67;;;0.10;;
16689;SDS011;8458;52.220;9.884;2023-01-13T01:12:09;0.10;;;0.10;;
16689;SDS011;8458;52.220;9.884;2023-01-13T01:14:35;0.20;;;0.10;;
16689;SDS011;8458;52.220;9.884;2023-01-13T01:17:02;0.50;;;0.10;;
16689;SDS011;8458;52.220;9.884;2023-01-13T01:19:29;0.10;;;0.10;;
16689;SDS011;8458;52.220;9.884;2023-01-13T01:21:56;0.30;;;0.20;;
16689;SDS011;8458;52.220;9.884;2023-01-13T01:24:23;0.30;;;0.10;;
16689;SDS011;8458;52.220;9.884;2023-01-13T01:26:49;0.10;;;0.10;;
16689;SDS011;8458;52.220;9.884;2023-01-13T01:29:16;0.10;;;0.10;;
16689;SDS011;8458;52.220;9.884;2023-01-13T01:31:42;0.37;;;0.10;;
16689;SDS011;8458;52.220;9.884;2023-01-13T01:34:09;1.37;;;0.27;;
16689;SDS011;8458;52.220;9.884;2023-01-13T01:36:35;0.33;;;0.10;;
16689;SDS011;8458;52.220;9.884;2023-01-13T01:39:03;0.10;;;0.10;;
16689;SDS011;8458;52.220;9.884;2023-01-13T01:41:32;0.10;;;0.10;;
16689;SDS011;8458;52.220;9.884;2023-01-13T01:44:00;0.10;;;0.10;;
16689;SDS011;8458;52.220;9.884;2023-01-13T01:46:31;0.20;;;0.10;;
16689;SDS011;8458;52.220;9.884;2023-01-13T01:49:01;0.10;;;0.10;;
16689;SDS011;8458;52.220;9.884;2023-01-13T01:51:33;0.33;;;0.10;;
16689;SDS011;8458;52.220;9.884;2023-01-13T01:54:03;0.30;;;0.10;;
16689;SDS011;8458;52.220;9.884;2023-01-13T01:56:33;0.20;;;0.10;;
16689;SDS011;8458;52.220;9.884;2023-01-13T01:59:01;0.57;;;0.10;;
16689;SDS011;8458;52.220;9.884;2023-01-13T02:01:27;0.20;;;0.20;;
16689;SDS011;8458;52.220;9.884;2023-01-13T02:03:55;0.83;;;0.20;;
16689;SDS011;8458;52.220;9.884;2023-01-13T02:06:27;0.20;;;0.10;;
16689;SDS011;8458;52.220;9.884;2023-01-13T02:08:54;0.27;;;0.20;;
16689;SDS011;8458;52.220;9.884;2023-01-13T02:11:27;0.90;;;0.30;;
16689;SDS011;8458;52.220;9.884;2023-01-13T02:14:12;0.20;;;0.10;;
16689;SDS011;8458;52.220;9.884;2023-01-13T02:16:39;1.00;;;0.30;;
16689;SDS011;8458;52.220;9.884;2023-01-13T02:19:15;0.60;;;0.20;;
16689;SDS011;8458;52.220;9.884;2023-01-13T02:22:26;0.10;;;0.10;;
16689;SDS011;8458;52.220;9.884;2023-01-13T02:25:17;0.60;;;0.20;;
16689;SDS011;8458;52.220;9.884;2023-01-13T02:28:01;1.17;;;0.30;;
16689;SDS011;8458;52.220;9.884;2023-01-13T02:30:44;0.70;;;0.30;;
16689;SDS011;8458;52.220;9.884;2023-01-13T02:33:34;0.60;;;0.20;;
16689;SDS011;8458;52.220;9.884;2023-01-13T02:36:15;1.13;;;0.30;;
16689;SDS011;8458;52.220;9.884;2023-01-13T02:38:49;0.70;;;0.30;;
16689;SDS011;8458;52.220;9.884;2023-01-13T02:41:18;0.93;;;0.30;;
16689;SDS011;8458;52.220;9.884;2023-01-13T02:44:08;2.70;;;0.50;;
16689;SDS011;8458;52.220;9.884;2023-01-13T02:46:47;1.27;;;0.50;;
16689;SDS011;8458;52.220;9.884;2023-01-13T02:49:21;1.23;;;0.30;;
16689;SDS011;8458;52.220;9.884;2023-01-13T02:51:56;1.27;;;0.40;;
16689;SDS011;8458;52.220;9.884;2023-01-13T02:54:27;1.33;;;0.50;;
16689;SDS011;8458;52.220;9.884;2023-01-13T02:56:55;1.60;;;0.40;;
16689;SDS011;8458;52.220;9.884;2023-01-13T02:59:24;1.00;;;0.43;;
16689;SDS011;8458;52.220;9.884;2023-01-13T03:01:55;0.87;;;0.40;;
16689;SDS011;8458;52.220;9.884;2023-01-13T03:07:19;0.47;;;0.20;;
16689;SDS011;8458;52.220;9.884;2023-01-13T03:10:00;0.67;;;0.30;;
16689;SDS011;8458;52.220;9.884;2023-01-13T03:12:36;0.97;;;0.40;;
16689;SDS011;8458;52.220;9.884;2023-01-13T03:15:12;2.80;;;0.63;;
16689;SDS011;8458;52.220;9.884;2023-01-13T03:17:45;1.20;;;0.50;;
16689;SDS011;8458;52.220;9.884;2023-01-13T03:20:20;0.70;;;0.40;;
16689;SDS011;8458;52.220;9.884;2023-01-13T03:22:54;1.47;;;0.37;;
16689;SDS011;8458;52.220;9.884;2023-01-13T03:25:29;1.20;;;0.30;;
16689;SDS011;8458;52.220;9.884;2023-01-13T03:28:01;1.77;;;0.43;;
16689;SDS011;8458;52.220;9.884;2023-01-13T03:30:31;1.10;;;0.60;;
16689;SDS011;8458;52.220;9.884;2023-01-13T03:33:03;0.87;;;0.43;;
16689;SDS011;8458;52.220;9.884;2023-01-13T03:35:35;2.00;;;0.60;;
16689;SDS011;8458;52.220;9.884;2023-01-13T03:38:06;1.53;;;0.50;;
16689;SDS011;8458;52.220;9.884;2023-01-13T03:40:37;2.53;;;0.60;;
16689;SDS011;8458;52.220;9.884;2023-01-13T03:43:10;2.17;;;0.60;;
16689;SDS011;8458;52.220;9.884;2023-01-13T03:46:00;1.67;;;0.43;;
16689;SDS011;8458;52.220;9.884;2023-01-13T03:48:33;3.13;;;0.70;;
16689;SDS011;8458;52.220;9.884;2023-01-13T03:51:03;1.67;;;0.60;;
16689;SDS011;8458;52.220;9.884;2023-01-13T03:53:31;1.37;;;0.70;;
16689;SDS011;8458;52.220;9.884;2023-01-13T03:56:04;1.50;;;0.67;;
16689;SDS011;8458;52.220;9.884;2023-01-13T03:58:36;1.53;;;0.73;;
16689;SDS011;8458;52.220;9.884;2023-01-13T04:01:10;1.93;;;1.10;;
16689;SDS011;8458;52.220;9.884;2023-01-13T04:03:41;3.70;;;0.97;;
16689;SDS011;8458;52.220;9.884;2023-01-13T04:06:14;1.67;;;0.70;;
16689;SDS011;8458;52.220;9.884;2023-01-13T04:08:47;4.07;;;0.90;;
16689;SDS011;8458;52.220;9.884;2023-01-13T04:11:18;3.07;;;0.90;;
16689;SDS011;8458;52.220;9.884;2023-01-13T04:13:53;2.73;;;0.90;;
16689;SDS011;8458;52.220;9.884;2023-01-13T04:16:20;4.43;;;1.10;;
16689;SDS011;8458;52.220;9.884;2023-01-13T04:18:48;4.50;;;1.23;;
16689;SDS011;8458;52.220;9.884;2023-01-13T04:21:15;2.83;;;0.87;;
16689;SDS011;8458;52.220;9.884;2023-01-13T04:23:41;3.67;;;0.80;;
16689;SDS011;8458;52.220;9.884;2023-01-13T04:26:08;2.70;;;0.90;;
16689;SDS011;8458;52.220;9.884;2023-01-13T04:28:34;1.53;;;0.73;;
16689;SDS011;8458;52.220;9.884;2023-01-13T04:31:01;5.20;;;1.13;;
16689;SDS011;8458;52.220;9.884;2023-01-13T04:33:27;2.30;;;0.90;;
16689;SDS011;8458;52.220;9.884;2023-01-13T04:35:55;3.13;;;0.80;;
16689;SDS011;8458;52.220;9.884;2023-01-13T04:38:21;3.17;;;0.90;;
16689;SDS011;8458;52.220;9.884;2023-01-13T04:40:48;3.60;;;0.80;;
16689;SDS011;8458;52.220;9.884;2023-01-13T04:43:15;3.10;;;0.80;;
16689;SDS011;8458;52.220;9.884;2023-01-13T04:45:41;4.23;;;1.17;;
16689;SDS011;8458;52.220;9.884;2023-01-13T04:48:08;1.70;;;0.80;;
16689;SDS011;8458;52.220;9.884;2023-01-13T04:50:34;2.40;;;0.97;;
16689;SDS011;8458;52.220;9.884;2023-01-13T04:53:02;2.37;;;1.00;;
16689;SDS011;8458;52.220;9.884;2023-01-13T04:55:29;3.67;;;1.10;;
16689;SDS011;8458;52.220;9.884;2023-01-13T04:57:59;3.43;;;1.13;;
16689;SDS011;8458;52.220;9.884;2023-01-13T05:00:27;4.07;;;1.13;;
16689;SDS011;8458;52.220;9.884;2023-01-13T05:02:53;2.67;;;1.07;;
16689;SDS011;8458;52.220;9.884;2023-01-13T05:05:20;2.90;;;1.20;;
16689;SDS011;8458;52.220;9.884;2023-01-13T05:07:46;5.20;;;1.50;;
16689;SDS011;8458;52.220;9.884;2023-01-13T05:10:14;3.93;;;1.40;;
16689;SDS011;8458;52.220;9.884;2023-01-13T05:12:41;3.43;;;1.40;;
16689;SDS011;8458;52.220;9.884;2023-01-13T05:15:25;4.20;;;1.20;;
16689;SDS011;8458;52.220;9.884;2023-01-13T05:18:09;4.47;;;1.40;;
16689;SDS011;8458;52.220;9.884;2023-01-13T05:20:36;5.20;;;1.93;;
16689;SDS011;8458;52.220;9.884;2023-01-13T05:23:02;4.73;;;1.50;;
16689;SDS011;8458;52.220;9.884;2023-01-13T05:25:48;6.13;;;1.40;;
16689;SDS011;8458;52.220;9.884;2023-01-13T05:28:15;4.50;;;1.50;;
16689;SDS011;8458;52.220;9.884;2023-01-13T05:30:43;5.10;;;1.90;;
16689;SDS011;8458;52.220;9.884;2023-01-13T05:33:12;5.47;;;1.53;;
16689;SDS011;8458;52.220;9.884;2023-01-13T05:35:41;7.47;;;1.53;;
16689;SDS011;8458;52.220;9.884;2023-01-13T05:38:09;5.47;;;1.20;;
16689;SDS011;8458;52.220;9.884;2023-01-13T05:40:36;5.50;;;1.60;;
16689;SDS011;8458;52.220;9.884;2023-01-13T05:43:22;4.60;;;1.37;;
16689;SDS011;8458;52.220;9.884;2023-01-13T05:45:50;5.03;;;1.50;;
16689;SDS011;8458;52.220;9.884;2023-01-13T05:48:19;6.33;;;1.57;;
16689;SDS011;8458;52.220;9.884;2023-01-13T05:50:46;4.63;;;1.70;;
16689;SDS011;8458;52.220;9.884;2023-01-13T05:53:14;5.73;;;1.83;;
16689;SDS011;8458;52.220;9.884;2023-01-13T05:55:42;6.10;;;1.97;;
16689;SDS011;8458;52.220;9.884;2023-01-13T05:58:09;5.13;;;1.63;;
16689;SDS011;8458;52.220;9.884;2023-01-13T06:00:38;5.33;;;1.47;;
16689;SDS011;8458;52.220;9.884;2023-01-13T06:03:05;5.37;;;1.70;;
16689;SDS011;8458;52.220;9.884;2023-01-13T06:05:32;4.63;;;1.43;;
16689;SDS011;8458;52.220;9.884;2023-01-13T06:07:59;6.87;;;1.90;;
16689;SDS011;8458;52.220;9.884;2023-01-13T06:10:27;5.03;;;1.73;;
16689;SDS011;8458;52.220;9.884;2023-01-13T06:12:54;3.73;;;1.33;;
16689;SDS011;8458;52.220;9.884;2023-01-13T06:15:21;5.03;;;1.60;;
16689;SDS011;8458;52.220;9.884;2023-01-13T06:17:49;4.53;;;1.37;;
16689;SDS011;8458;52.220;9.884;2023-01-13T06:20:16;4.07;;;1.10;;
16689;SDS011;8458;52.220;9.884;2023-01-13T06:22:43;3.30;;;0.93;;
16689;SDS011;8458;52.220;9.884;2023-01-13T06:25:15;4.40;;;1.00;;
16689;SDS011;8458;52.220;9.884;2023-01-13T06:27:46;3.17;;;0.80;;
16689;SDS011;8458;52.220;9.884;2023-01-13T06:30:13;3.77;;;1.03;;
16689;SDS011;8458;52.220;9.884;2023-01-13T06:32:42;1.83;;;0.60;;
16689;SDS011;8458;52.220;9.884;2023-01-13T06:35:13;3.53;;;1.03;;
16689;SDS011;8458;52.220;9.884;2023-01-13T06:37:43;3.53;;;1.00;;
16689;SDS011;8458;52.220;9.884;2023-01-13T06:40:11;2.53;;;0.87;;
16689;SDS011;8458;52.220;9.884;2023-01-13T06:42:39;2.33;;;0.80;;
16689;SDS011;8458;52.220;9.884;2023-01-13T06:45:24;3.47;;;0.87;;
16689;SDS011;8458;52.220;9.884;2023-01-13T06:47:52;3.43;;;0.90;;
16689;SDS011;8458;52.220;9.884;2023-01-13T06:50:22;2.70;;;1.00;;
16689;SDS011;8458;52.220;9.884;2023-01-13T06:52:49;3.30;;;0.90;;
16689;SDS011;8458;52.220;9.884;2023-01-13T06:55:15;3.97;;;1.00;;
16689;SDS011;8458;52.220;9.884;2023-01-13T06:57:46;4.17;;;1.20;;
16689;SDS011;8458;52.220;9.884;2023-01-13T07:00:14;3.13;;;1.00;;
16689;SDS011;8458;52.220;9.884;2023-01-13T07:02:41;4.40;;;1.37;;
16689;SDS011;8458;52.220;9.884;2023-01-13T07:05:08;4.87;;;1.43;;
16689;SDS011;8458;52.220;9.884;2023-01-13T07:07:36;5.20;;;1.40;;
16689;SDS011;8458;52.220;9.884;2023-01-13T07:10:02;4.13;;;1.20;;
16689;SDS011;8458;52.220;9.884;2023-01-13T07:12:29;4.63;;;1.10;;
16689;SDS011;8458;52.220;9.884;2023-01-13T07:15:16;4.20;;;1.13;;
16689;SDS011;8458;52.220;9.884;2023-01-13T07:17:44;4.73;;;1.00;;
16689;SDS011;8458;52.220;9.884;2023-01-13T07:20:10;4.67;;;1.20;;
16689;SDS011;8458;52.220;9.884;2023-01-13T07:22:39;3.27;;;1.07;;
16689;SDS011;8458;52.220;9.884;2023-01-13T07:25:06;3.87;;;0.93;;
16689;SDS011;8458;52.220;9.884;2023-01-13T07:27:33;4.40;;;1.30;;
16689;SDS011;8458;52.220;9.884;2023-01-13T07:30:00;3.93;;;1.20;;
16689;SDS011;8458;52.220;9.884;2023-01-13T07:32:26;7.53;;;1.30;;
16689;SDS011;8458;52.220;9.884;2023-01-13T07:34:53;2.13;;;0.80;;
16689;SDS011;8458;52.220;9.884;2023-01-13T07:37:19;4.53;;;1.33;;
16689;SDS011;8458;52.220;9.884;2023-01-13T07:39:47;4.10;;;1.20;;
16689;SDS011;8458;52.220;9.884;2023-01-13T07:42:14;5.57;;;1.20;;
16689;SDS011;8458;52.220;9.884;2023-01-13T07:44:58;5.07;;;1.00;;
16689;SDS011;8458;52.220;9.884;2023-01-13T07:47:24;4.17;;;0.90;;
16689;SDS011;8458;52.220;9.884;2023-01-13T07:49:51;2.77;;;0.90;;
16689;SDS011;8458;52.220;9.884;2023-01-13T07:52:17;6.27;;;1.37;;
16689;SDS011;8458;52.220;9.884;2023-01-13T07:54:43;5.90;;;1.40;;
16689;SDS011;8458;52.220;9.884;2023-01-13T07:57:11;2.80;;;0.97;;
16689;SDS011;8458;52.220;9.884;2023-01-13T07:59:38;4.17;;;1.10;;
16689;SDS011;8458;52.220;9.884;2023-01-13T08:02:04;6.97;;;1.20;;
16689;SDS011;8458;52.220;9.884;2023-01-13T08:04:31;3.77;;;1.07;;
16689;SDS011;8458;52.220;9.884;2023-01-13T08:06:58;5.10;;;1.17;;
16689;SDS011;8458;52.220;9.884;2023-01-13T08:09:25;4.33;;;0.97;;
16689;SDS011;8458;52.220;9.884;2023-01-13T08:11:52;3.80;;;1.00;;
16689;SDS011;8458;52.220;9.884;2023-01-13T08:14:41;3.33;;;1.33;;
16689;SDS011;8458;52.220;9.884;2023-01-13T08:17:08;3.33;;;1.10;;
16689;SDS011;8458;52.220;9.884;2023-01-13T08:19:34;2.93;;;0.90;;
16689;SDS011;8458;52.220;9.884;2023-01-13T08:22:01;3.37;;;1.00;;
16689;SDS011;8458;52.220;9.884;2023-01-13T08:24:27;4.57;;;1.20;;
16689;SDS011;8458;52.220;9.884;2023-01-13T08:26:53;2.33;;;1.00;;
16689;SDS011;8458;52.220;9.884;2023-01-13T08:29:20;3.80;;;1.40;;
16689;SDS011;8458;52.220;9.884;2023-01-13T08:31:48;2.77;;;1.13;;
16689;SDS011;8458;52.220;9.884;2023-01-13T08:34:14;4.43;;;1.33;;
16689;SDS011;8458;52.220;9.884;2023-01-13T08:36:41;5.23;;;1.03;;
16689;SDS011;8458;52.220;9.884;2023-01-13T08:39:07;5.17;;;1.00;;
16689;SDS011;8458;52.220;9.884;2023-01-13T08:41:34;4.73;;;1.27;;
16689;SDS011;8458;52.220;9.884;2023-01-13T08:44:18;3.83;;;1.20;;
16689;SDS011;8458;52.220;9.884;2023-01-13T08:46:44;3.50;;;1.37;;
16689;SDS011;8458;52.220;9.884;2023-01-13T08:49:12;4.53;;;1.20;;
16689;SDS011;8458;52.220;9.884;2023-01-13T08:51:38;5.30;;;1.20;;
16689;SDS011;8458;52.220;9.884;2023-01-13T08:54:05;3.93;;;1.00;;
16689;SDS011;8458;52.220;9.884;2023-01-13T08:56:31;4.13;;;1.40;;
16689;SDS011;8458;52.220;9.884;2023-01-13T08:58:58;3.90;;;1.30;;
16689;SDS011;8458;52.220;9.884;2023-01-13T09:01:25;2.50;;;0.80;;
16689;SDS011;8458;52.220;9.884;2023-01-13T09:03:52;3.30;;;1.00;;
16689;SDS011;8458;52.220;9.884;2023-01-13T09:06:20;4.50;;;1.40;;
16689;SDS011;8458;52.220;9.884;2023-01-13T09:08:46;3.27;;;0.80;;
16689;SDS011;8458;52.220;9.884;2023-01-13T09:11:13;2.70;;;1.10;;
16689;SDS011;8458;52.220;9.884;2023-01-13T09:14:00;5.00;;;1.20;;
16689;SDS011;8458;52.220;9.884;2023-01-13T09:16:27;4.10;;;1.17;;
16689;SDS011;8458;52.220;9.884;2023-01-13T09:18:53;2.63;;;1.07;;
16689;SDS011;8458;52.220;9.884;2023-01-13T09:21:21;3.07;;;1.30;;
16689;SDS011;8458;52.220;9.884;2023-01-13T09:23:48;2.73;;;0.97;;
16689;SDS011;8458;52.220;9.884;2023-01-13T09:26:14;2.93;;;1.00;;
16689;SDS011;8458;52.220;9.884;2023-01-13T09:28:45;3.40;;;1.10;;
16689;SDS011;8458;52.220;9.884;2023-01-13T09:31:11;3.43;;;1.03;;
16689;SDS011;8458;52.220;9.884;2023-01-13T09:33:38;5.53;;;1.60;;
16689;SDS011;8458;52.220;9.884;2023-01-13T09:36:23;4.03;;;1.27;;
16689;SDS011;8458;52.220;9.884;2023-01-13T09:38:49;3.30;;;1.17;;
16689;SDS011;8458;52.220;9.884;2023-01-13T09:41:16;3.43;;;1.30;;
16689;SDS011;8458;52.220;9.884;2023-01-13T09:43:58;5.07;;;1.00;;
16689;SDS011;8458;52.220;9.884;2023-01-13T09:46:28;4.03;;;1.33;;
16689;SDS011;8458;52.220;9.884;2023-01-13T09:49:08;3.87;;;1.43;;
16689;SDS011;8458;52.220;9.884;2023-01-13T09:51:46;4.60;;;1.30;;
16689;SDS011;8458;52.220;9.884;2023-01-13T09:54:19;5.00;;;1.10;;
16689;SDS011;8458;52.220;9.884;2023-01-13T09:56:56;4.03;;;1.00;;
16689;SDS011;8458;52.220;9.884;2023-01-13T09:59:22;3.77;;;1.20;;
16689;SDS011;8458;52.220;9.884;2023-01-13T10:01:53;3.63;;;0.97;;
16689;SDS011;8458;52.220;9.884;2023-01-13T10:04:25;4.27;;;1.23;;
16689;SDS011;8458;52.220;9.884;2023-01-13T10:06:53;4.53;;;1.23;;
16689;SDS011;8458;52.220;9.884;2023-01-13T10:09:24;3.30;;;1.80;;
16689;SDS011;8458;52.220;9.884;2023-01-13T10:11:55;4.87;;;1.10;;
16689;SDS011;8458;52.220;9.884;2023-01-13T10:14:43;3.80;;;0.97;;
16689;SDS011;8458;52.220;9.884;2023-01-13T10:17:18;3.10;;;1.00;;
16689;SDS011;8458;52.220;9.884;2023-01-13T10:19:51;3.17;;;1.17;;
16689;SDS011;8458;52.220;9.884;2023-01-13T10:22:30;5.03;;;1.20;;
16689;SDS011;8458;52.220;9.884;2023-01-13T10:25:10;4.00;;;1.10;;
16689;SDS011;8458;52.220;9.884;2023-01-13T10:27:45;3.80;;;1.10;;
16689;SDS011;8458;52.220;9.884;2023-01-13T10:30:18;2.03;;;1.10;;
16689;SDS011;8458;52.220;9.884;2023-01-13T10:32:49;3.53;;;1.20;;
16689;SDS011;8458;52.220;9.884;2023-01-13T10:38:16;4.27;;;1.30;;
16689;SDS011;8458;52.220;9.884;2023-01-13T10:40:48;3.53;;;1.10;;
16689;SDS011;8458;52.220;9.884;2023-01-13T10:43:15;3.90;;;1.10;;
16689;SDS011;8458;52.220;9.884;2023-01-13T10:45:42;3.43;;;1.30;;
16689;SDS011;8458;52.220;9.884;2023-01-13T10:48:34;3.57;;;1.30;;
16689;SDS011;8458;52.220;9.884;2023-01-13T10:51:17;4.37;;;1.10;;
16689;SDS011;8458;52.220;9.884;2023-01-13T10:53:50;3.33;;;1.10;;
16689;SDS011;8458;52.220;9.884;2023-01-13T10:56:19;3.70;;;1.13;;
16689;SDS011;8458;52.220;9.884;2023-01-13T10:58:46;4.70;;;1.17;;
16689;SDS011;8458;52.220;9.884;2023-01-13T11:01:17;4.43;;;1.40;;
16689;SDS011;8458;52.220;9.884;2023-01-13T11:03:49;3.40;;;1.33;;
16689;SDS011;8458;52.220;9.884;2023-01-13T11:06:20;3.20;;;1.10;;
16689;SDS011;8458;52.220;9.884;2023-01-13T11:08:48;5.97;;;1.30;;
16689;SDS011;8458;52.220;9.884;2023-01-13T11:11:37;3.63;;;1.20;;
16689;SDS011;8458;52.220;9.884;2023-01-13T11:14:08;3.33;;;1.03;;
16689;SDS011;8458;52.220;9.884;2023-01-13T11:17:09;5.13;;;1.23;;
16689;SDS011;8458;52.220;9.884;2023-01-13T11:19:54;4.27;;;1.53;;
16689;SDS011;8458;52.220;9.884;2023-01-13T11:22:26;5.27;;;1.90;;
16689;SDS011;8458;52.220;9.884;2023-01-13T11:24:59;5.30;;;1.40;;
16689;SDS011;8458;52.220;9.884;2023-01-13T11:27:32;3.97;;;1.50;;
16689;SDS011;8458;52.220;9.884;2023-01-13T11:30:09;3.67;;;1.10;;
16689;SDS011;8458;52.220;9.884;2023-01-13T11:32:52;4.80;;;1.37;;
16689;SDS011;8458;52.220;9.884;2023-01-13T11:35:30;3.80;;;1.40;;
16689;SDS011;8458;52.220;9.884;2023-01-13T11:38:00;2.70;;;0.90;;
16689;SDS011;8458;52.220;9.884;2023-01-13T11:40:37;3.93;;;1.30;;
16689;SDS011;8458;52.220;9.884;2023-01-13T11:43:09;3.63;;;1.20;;
16689;SDS011;8458;52.220;9.884;2023-01-13T11:45:41;3.53;;;1.30;;
16689;SDS011;8458;52.220;9.884;2023-01-13T11:48:15;5.10;;;1.40;;
16689;SDS011;8458;52.220;9.884;2023-01-13T11:50:45;5.13;;;1.30;;
16689;SDS011;8458;52.220;9.884;2023-01-13T11:53:25;3.53;;;1.30;;
16689;SDS011;8458;52.220;9.884;2023-01-13T11:56:05;3.93;;;1.33;;
16689;SDS011;8458;52.220;9.884;2023-01-13T11:58:56;8.40;;;1.50;;
16689;SDS011;8458;52.220;9.884;2023-01-13T12:01:36;4.73;;;1.87;;
16689;SDS011;8458;52.220;9.884;2023-01-13T12:04:20;5.80;;;1.60;;
16689;SDS011;8458;52.220;9.884;2023-01-13T12:06:51;4.77;;;1.60;;
16689;SDS011;8458;52.220;9.884;2023-01-13T12:09:32;4.27;;;1.57;;
16689;SDS011;8458;52.220;9.884;2023-01-13T12:12:12;6.30;;;2.13;;
16689;SDS011;8458;52.220;9.884;2023-01-13T12:18:01;5.13;;;1.60;;
16689;SDS011;8458;52.220;9.884;2023-01-13T12:20:39;5.53;;;1.60;;
16689;SDS011;8458;52.220;9.884;2023-01-13T12:23:16;4.63;;;1.37;;
16689;SDS011;8458;52.220;9.884;2023-01-13T12:25:51;6.77;;;1.57;;
16689;SDS011;8458;52.220;9.884;2023-01-13T12:28:25;5.23;;;1.50;;
16689;SDS011;8458;52.220;9.884;2023-01-13T12:30:58;5.57;;;1.20;;
16689;SDS011;8458;52.220;9.884;2023-01-13T12:33:28;4.80;;;1.60;;
16689;SDS011;8458;52.220;9.884;2023-01-13T12:36:10;3.83;;;1.50;;
16689;SDS011;8458;52.220;9.884;2023-01-13T12:38:47;6.43;;;1.63;;
16689;SDS011;8458;52.220;9.884;2023-01-13T12:41:15;4.23;;;1.33;;
16689;SDS011;8458;52.220;9.884;2023-01-13T12:43:56;3.13;;;1.30;;
16689;SDS011;8458;52.220;9.884;2023-01-13T12:46:45;4.87;;;1.10;;
16689;SDS011;8458;52.220;9.884;2023-01-13T12:52:11;5.00;;;1.40;;
16689;SDS011;8458;52.220;9.884;2023-01-13T12:55:02;5.10;;;1.63;;
16689;SDS011;8458;52.220;9.884;2023-01-13T12:57:39;4.60;;;1.07;;
16689;SDS011;8458;52.220;9.884;2023-01-13T13:00:23;5.70;;;1.47;;
16689;SDS011;8458;52.220;9.884;2023-01-13T13:05:54;4.03;;;1.70;;
16689;SDS011;8458;52.220;9.884;2023-01-13T13:08:25;5.17;;;1.70;;
16689;SDS011;8458;52.220;9.884;2023-01-13T13:11:18;5.50;;;1.80;;
16689;SDS011;8458;52.220;9.884;2023-01-13T13:17:43;3.33;;;1.13;;
16689;SDS011;8458;52.220;9.884;2023-01-13T13:23:25;7.30;;;1.87;;
16689;SDS011;8458;52.220;9.884;2023-01-13T13:26:04;5.87;;;1.67;;
16689;SDS011;8458;52.220;9.884;2023-01-13T13:28:43;5.20;;;1.60;;
16689;SDS011;8458;52.220;9.884;2023-01-13T13:31:25;6.20;;;2.30;;
16689;SDS011;8458;52.220;9.884;2023-01-13T13:34:11;5.43;;;1.80;;
16689;SDS011;8458;52.220;9.884;2023-01-13T13:36:49;6.90;;;1.87;;
16689;SDS011;8458;52.220;9.884;2023-01-13T13:39:28;6.83;;;2.03;;
16689;SDS011;8458;52.220;9.884;2023-01-13T13:42:15;4.77;;;1.80;;
16689;SDS011;8458;52.220;9.884;2023-01-13T13:45:14;6.47;;;1.90;;
16689;SDS011;8458;52.220;9.884;2023-01-13T13:48:18;4.40;;;1.80;;
16689;SDS011;8458;52.220;9.884;2023-01-13T13:50:48;5.43;;;1.70;;
16689;SDS011;8458;52.220;9.884;2023-01-13T13:53:15;6.80;;;2.20;;
16689;SDS011;8458;52.220;9.884;2023-01-13T13:55:50;4.83;;;2.40;;
16689;SDS011;8458;52.220;9.884;2023-01-13T13:58:19;5.23;;;1.60;;
16689;SDS011;8458;52.220;9.884;2023-01-13T14:00:47;7.73;;;2.10;;
16689;SDS011;8458;52.220;9.884;2023-01-13T14:03:21;5.33;;;2.27;;
16689;SDS011;8458;52.220;9.884;2023-01-13T14:05:56;3.83;;;1.63;;
16689;SDS011;8458;52.220;9.884;2023-01-13T14:08:25;4.97;;;1.73;;
16689;SDS011;8458;52.220;9.884;2023-01-13T14:10:52;4.93;;;1.50;;
16689;SDS011;8458;52.220;9.884;2023-01-13T14:13:20;5.37;;;1.27;;
16689;SDS011;8458;52.220;9.884;2023-01-13T14:15:48;3.83;;;1.33;;
16689;SDS011;8458;52.220;9.884;2023-01-13T14:18:21;3.37;;;1.30;;
16689;SDS011;8458;52.220;9.884;2023-01-13T14:20:52;3.80;;;1.20;;
16689;SDS011;8458;52.220;9.884;2023-01-13T14:23:22;3.90;;;1.30;;
16689;SDS011;8458;52.220;9.884;2023-01-13T14:25:51;3.27;;;1.17;;
16689;SDS011;8458;52.220;9.884;2023-01-13T14:28:23;4.93;;;1.27;;
16689;SDS011;8458;52.220;9.884;2023-01-13T14:30:51;3.13;;;1.10;;
16689;SDS011;8458;52.220;9.884;2023-01-13T14:33:20;4.00;;;1.37;;
16689;SDS011;8458;52.220;9.884;2023-01-13T14:38:49;2.87;;;1.10;;
16689;SDS011;8458;52.220;9.884;2023-01-13T14:41:51;3.23;;;1.10;;
16689;SDS011;8458;52.220;9.884;2023-01-13T14:44:20;4.47;;;1.20;;
16689;SDS011;8458;52.220;9.884;2023-01-13T14:46:51;3.57;;;1.60;;
16689;SDS011;8458;52.220;9.884;2023-01-13T14:49:22;5.90;;;1.60;;
16689;SDS011;8458;52.220;9.884;2023-01-13T14:51:51;3.50;;;1.33;;
16689;SDS011;8458;52.220;9.884;2023-01-13T14:57:21;4.43;;;1.50;;
16689;SDS011;8458;52.220;9.884;2023-01-13T14:59:55;5.60;;;1.80;;
16689;SDS011;8458;52.220;9.884;2023-01-13T15:02:38;5.17;;;1.70;;
16689;SDS011;8458;52.220;9.884;2023-01-13T15:05:27;6.30;;;1.83;;
16689;SDS011;8458;52.220;9.884;2023-01-13T15:07:56;7.30;;;1.40;;
16689;SDS011;8458;52.220;9.884;2023-01-13T15:10:27;5.30;;;1.60;;
16689;SDS011;8458;52.220;9.884;2023-01-13T15:12:56;3.60;;;1.13;;
16689;SDS011;8458;52.220;9.884;2023-01-13T15:15:24;3.67;;;1.23;;
16689;SDS011;8458;52.220;9.884;2023-01-13T15:17:52;4.20;;;1.40;;
16689;SDS011;8458;52.220;9.884;2023-01-13T15:20:20;3.47;;;1.17;;
16689;SDS011;8458;52.220;9.884;2023-01-13T15:22:48;3.10;;;1.30;;
16689;SDS011;8458;52.220;9.884;2023-01-13T15:25:16;3.73;;;1.37;;
16689;SDS011;8458;52.220;9.884;2023-01-13T15:27:44;2.90;;;0.90;;
16689;SDS011;8458;52.220;9.884;2023-01-13T15:30:14;3.17;;;1.00;;
16689;SDS011;8458;52.220;9.884;2023-01-13T15:32:42;2.50;;;1.00;;
16689;SDS011;8458;52.220;9.884;2023-01-13T15:35:11;5.00;;;1.30;;
16689;SDS011;8458;52.220;9.884;2023-01-13T15:37:38;3.33;;;1.10;;
16689;SDS011;8458;52.220;9.884;2023-01-13T15:40:08;3.93;;;1.10;;
16689;SDS011;8458;52.220;9.884;2023-01-13T15:42:38;3.33;;;1.10;;
16689;SDS011;8458;52.220;9.884;2023-01-13T15:45:24;4.13;;;1.10;;
16689;SDS011;8458;52.220;9.884;2023-01-13T15:48:08;3.67;;;1.30;;
16689;SDS011;8458;52.220;9.884;2023-01-13T15:50:35;3.30;;;1.17;;
16689;SDS011;8458;52.220;9.884;2023-01-13T15:53:01;4.00;;;1.60;;
16689;SDS011;8458;52.220;9.884;2023-01-13T15:55:28;4.77;;;1.63;;